Muldrow, Oklahoma
Current Conditions -  °F | °C
As of 10:35 PM on Saturday 22 Nov 2014 (Local Time) from KJSV Reporting Station
Haze Haze  
Wind Chill: 54°   Ceiling: 700
Heat Index: 54°   Visibility: 5mi
Dew Point: 52°   Wind: 8mph
Humidity: 94%   Direction: 80°E
Pressure: 29.78"   Gusts: NA
Location:  35.41°N, 94.6°W
Report Text: KJSV 230435Z AUTO 08007KT 5SM BR OVC007 12/11 A2978 RMK AO2
Loading
Personal Weather Stations






























Interactive Weather Map New forecast layout! Learn more

10-Day Weather Forecast

Advertisements
Track Severe Weather on mobile